Terminal Aerodrome Forecast
Issued by NWS

Current Version | Previous Version | Text Only | Print | Product List | Glossary Off
Versions: 1 2 3 4 5 6 7 8 9 10 11 12 13 14 15 16 17 18 19 20 21 22 23 24

344
FTUS41 KILN 282333
TAFLUK
TAF
KLUK 282333Z 2900/2924 VRB02KT P6SM SCT040 SCT150
     FM290600 00000KT 4SM BR SCT150
     FM290900 00000KT 2SM BR SCT018
      TEMPO 2910/2912 1/2SM FG BKN018
     FM291300 VRB03KT P6SM SCT028
     FM291800 VRB04KT P6SM VCTS BKN040CB BKN150=

USA.gov is the U.S. government's official web portal to all federal, state and local government web resources and services.